Vernal Regional Airport
KVEL : now visible

Airfield :











YOU CAN JOIN US ON...

 
LOGIN :

Register | Disclaimer

   EN    FR    IT 

 









Legend :    VFR   Marginal VFR   IFR   Intensive IFR   Very Intensive IFR
Visi :
Ceiling :
>= 8 km
>= 3000ft
5 to 8 km
1000 to 3000 ft
1500m to 5 km
500 to 1000 ft
800 to 1500m
200 to 500 ft
< 800m
< 200 ft
Symbols :   Thunderstorms  Fog  Heavy snow  Heavy precipitations  Wind > 20 kt






- Airport Elevation : 5278 ft


KVEL - Vernal Regional

CURRENT METAR :
  • 271253Z AUTO 29004KT 10SM CLR 08/M01 A3009 RMK AO2 SLP144 T00831006

EXPIRED METARs :
  • 271153Z AUTO 26004KT 10SM CLR 07/00 A3008 RMK AO2 SLP136 T00720000 10156 20072 53001
  • 271053Z AUTO 26003KT 10SM CLR 08/M01 A3008 RMK AO2 SLP131 T00831006

TAF KVEL
Valid from the 27 at 12:00 until the 28 at 12:00 UTC


271136Z 2712/2812 VRB04KT P6SM SKC
FM271800 22008KT P6SM SKC
FM280200 29007KT P6SM SCT150
KZLC FIR / North America



MET'MAP, your aeronautical weather chart ! - Copyright ORBIFLY December 2007 - Disclaimer

ORBIFLY MET'MAP TEAM :

Programming & Development : Alexandra Zaïnal
Concept & original design : Baudouin d'Aumeries
Assistance for programming : Marc-Olivier Méhu
Technical & hardware support : Manuel Goepfert

Contact : metmap@orbifly.com




SOURCES & CREDITS :

   NOAA       Earth
Advisory